createdAt,value
2019-04-20T00:01:03.386Z,0.00
2019-04-20T00:06:09.183Z,0.00
2019-04-20T00:11:21.865Z,0.00
2019-04-20T00:16:21.141Z,0.00
2019-04-20T00:21:51.985Z,0.00
2019-04-20T00:27:28.474Z,0.00
2019-04-20T00:32:09.621Z,0.00
2019-04-20T00:37:05.817Z,0.00
2019-04-20T00:42:14.549Z,0.00
2019-04-20T00:47:30.948Z,0.00
2019-04-20T00:52:45.218Z,0.03
2019-04-20T00:57:43.051Z,0.00
2019-04-20T01:02:50.546Z,0.00
2019-04-20T01:08:14.870Z,0.00
2019-04-20T01:13:23.378Z,0.10
2019-04-20T01:18:27.145Z,0.00
2019-04-20T01:23:40.106Z,0.10
2019-04-20T01:28:54.199Z,0.10
2019-04-20T01:33:56.579Z,0.00
2019-04-20T01:39:07.771Z,0.00
2019-04-20T01:44:00.902Z,0.00
2019-04-20T01:49:14.812Z,0.00
2019-04-20T01:54:32.606Z,0.00
2019-04-20T01:59:44.889Z,0.00
2019-04-20T02:04:45.946Z,0.00
2019-04-20T02:09:56.426Z,0.00
2019-04-20T02:15:01.109Z,0.00
2019-04-20T02:20:23.463Z,0.10
2019-04-20T02:25:10.082Z,0.00
2019-04-20T02:30:49.595Z,0.10
2019-04-20T02:36:25.478Z,0.10
2019-04-20T02:41:21.566Z,0.10
2019-04-20T02:46:28.546Z,0.00
2019-04-20T02:51:37.097Z,0.10
2019-04-20T02:56:45.357Z,0.00
2019-04-20T03:01:40.783Z,0.10
2019-04-20T03:06:42.304Z,0.00
2019-04-20T03:12:04.797Z,0.10
2019-04-20T03:17:08.121Z,0.00
2019-04-20T03:27:15.833Z,0.00
2019-04-20T03:33:00.117Z,0.10
2019-04-20T03:37:44.106Z,0.00
2019-04-20T03:42:24.456Z,0.10
2019-04-20T03:47:38.429Z,0.10
2019-04-20T03:53:09.850Z,0.00
2019-04-20T03:58:24.430Z,0.10
2019-04-20T04:03:49.926Z,0.10
2019-04-20T04:08:32.881Z,0.10
2019-04-20T04:13:31.580Z,0.00
2019-04-20T04:18:42.015Z,0.00
2019-04-20T04:23:58.850Z,0.10
2019-04-20T04:29:13.701Z,0.10
2019-04-20T04:34:12.420Z,0.03
2019-04-20T04:39:29.409Z,0.10
2019-04-20T04:44:26.583Z,0.10
2019-04-20T04:49:25.848Z,0.10
2019-04-20T04:54:34.006Z,0.10
2019-04-20T04:59:31.717Z,0.00
2019-04-20T05:05:17.399Z,0.07
2019-04-20T05:10:01.401Z,0.10
2019-04-20T05:15:14.282Z,0.10
2019-04-20T05:20:38.304Z,0.00
2019-04-20T05:26:05.420Z,0.00
2019-04-20T05:30:51.976Z,0.10
2019-04-20T05:36:14.450Z,0.10
2019-04-20T05:41:18.809Z,0.10
2019-04-20T05:46:26.477Z,0.10
2019-04-20T05:51:40.908Z,0.00
2019-04-20T05:56:50.100Z,0.10
2019-04-20T06:01:52.699Z,0.10
2019-04-20T06:06:56.723Z,0.10
2019-04-20T06:17:21.269Z,0.00
2019-04-20T06:23:05.534Z,0.10
2019-04-20T06:28:02.861Z,0.00
2019-04-20T06:34:05.568Z,0.00
2019-04-20T06:44:12.844Z,0.10
2019-04-20T06:49:18.341Z,0.10
2019-04-20T06:54:12.426Z,0.23
2019-04-20T06:59:32.226Z,0.20
2019-04-20T07:09:54.728Z,0.40
2019-04-20T07:14:45.450Z,0.50
2019-04-20T07:20:04.090Z,0.40
2019-04-20T07:25:21.512Z,0.47
2019-04-20T07:30:21.589Z,0.77
2019-04-20T07:35:31.876Z,0.50
2019-04-20T07:40:35.532Z,0.70
2019-04-20T07:45:36.571Z,0.70
2019-04-20T07:50:44.991Z,0.63
2019-04-20T07:56:01.016Z,0.93
2019-04-20T08:01:15.402Z,0.60
2019-04-20T08:06:19.340Z,0.90
2019-04-20T08:11:37.972Z,0.70
2019-04-20T08:21:53.029Z,0.80
2019-04-20T08:26:45.355Z,0.90
2019-04-20T08:32:25.924Z,1.00
2019-04-20T08:37:35.314Z,0.73
2019-04-20T08:42:49.634Z,0.50
2019-04-20T08:47:49.911Z,0.50
2019-04-20T08:53:08.870Z,0.70
2019-04-20T08:57:39.982Z,0.50
2019-04-20T09:02:48.877Z,0.60
2019-04-20T09:08:02.518Z,0.40
2019-04-20T09:13:11.604Z,0.50
2019-04-20T09:18:22.504Z,0.50
2019-04-20T09:23:38.854Z,0.47
2019-04-20T09:28:40.530Z,0.40
2019-04-20T09:34:01.574Z,0.50
2019-04-20T09:39:24.718Z,0.50
2019-04-20T09:44:25.678Z,0.37
2019-04-20T09:49:40.188Z,0.30
2019-04-20T09:54:55.427Z,0.30
2019-04-20T10:00:01.834Z,0.30
2019-04-20T10:04:49.842Z,0.37
2019-04-20T10:09:55.791Z,0.40
2019-04-20T10:15:04.158Z,0.40
2019-04-20T10:20:14.678Z,0.47
2019-04-20T10:25:15.290Z,0.37
2019-04-20T10:30:20.748Z,0.30
2019-04-20T10:35:25.709Z,0.40
2019-04-20T10:40:44.884Z,0.33
2019-04-20T10:45:37.428Z,0.50
2019-04-20T10:50:43.100Z,0.30
2019-04-20T10:55:49.352Z,0.37
2019-04-20T11:00:55.741Z,0.40
2019-04-20T11:06:00.890Z,0.50
2019-04-20T11:11:12.971Z,0.50
2019-04-20T11:16:14.764Z,0.30
2019-04-20T11:21:19.993Z,0.20
2019-04-20T11:26:26.355Z,0.40
2019-04-20T11:31:37.248Z,0.40
2019-04-20T11:36:39.237Z,0.30
2019-04-20T11:41:45.731Z,0.30
2019-04-20T11:46:52.327Z,0.40
2019-04-20T11:51:59.379Z,0.50
2019-04-20T11:57:04.762Z,0.30
2019-04-20T12:02:30.218Z,0.30
2019-04-20T12:07:40.560Z,0.10
2019-04-20T12:12:50.261Z,0.30
2019-04-20T12:17:53.670Z,0.30
2019-04-20T12:23:00.202Z,0.20
2019-04-20T12:28:05.801Z,0.20
2019-04-20T12:33:11.493Z,0.13
2019-04-20T12:38:17.255Z,0.40
2019-04-20T12:43:23.519Z,0.30
2019-04-20T12:48:29.302Z,0.30
2019-04-20T12:53:35.390Z,0.27
2019-04-20T12:58:43.301Z,0.30
2019-04-20T13:03:47.650Z,0.40
2019-04-20T13:08:56.854Z,0.20
2019-04-20T13:14:26.348Z,0.30
2019-04-20T13:19:33.016Z,0.20
2019-04-20T13:24:39.133Z,0.60
2019-04-20T13:29:47.221Z,0.40
2019-04-20T13:34:52.045Z,0.50
2019-04-20T13:39:57.093Z,0.40
2019-04-20T13:45:03.071Z,0.40
2019-04-20T13:50:09.716Z,0.40
2019-04-20T13:55:16.908Z,0.27
2019-04-20T14:00:45.897Z,0.30
2019-04-20T14:05:52.970Z,0.50
2019-04-20T14:10:58.017Z,0.40
2019-04-20T14:16:03.136Z,0.50
2019-04-20T14:21:08.222Z,0.20
2019-04-20T14:26:14.598Z,0.40
2019-04-20T14:31:19.892Z,0.50
2019-04-20T14:36:25.096Z,0.37
2019-04-20T14:41:30.655Z,0.50
2019-04-20T14:46:35.891Z,0.20
2019-04-20T14:51:41.672Z,0.30
2019-04-20T14:56:47.579Z,0.27
2019-04-20T15:02:00.702Z,0.30
2019-04-20T15:07:06.661Z,0.10
2019-04-20T15:12:12.964Z,0.10
2019-04-20T15:17:30.105Z,0.33
2019-04-20T15:22:41.659Z,0.17
2019-04-20T15:27:47.988Z,0.13
2019-04-20T15:32:53.082Z,0.10
2019-04-20T15:37:59.398Z,0.30
2019-04-20T15:43:12.427Z,0.00
2019-04-20T15:48:12.281Z,0.10
2019-04-20T15:53:17.629Z,0.10
2019-04-20T15:58:22.800Z,0.10
2019-04-20T16:03:33.039Z,0.10
2019-04-20T16:08:39.307Z,0.10
2019-04-20T16:13:49.448Z,0.00
2019-04-20T16:18:50.897Z,0.00
2019-04-20T16:24:01.133Z,0.10
2019-04-20T16:29:08.115Z,0.03
2019-04-20T16:34:13.663Z,0.07
2019-04-20T16:39:18.989Z,0.20
2019-04-20T16:44:25.131Z,0.00
2019-04-20T16:49:30.744Z,0.00
2019-04-20T16:54:37.569Z,0.00
2019-04-20T16:59:46.923Z,0.10
2019-04-20T17:04:52.049Z,0.07
2019-04-20T17:09:57.898Z,0.00
2019-04-20T17:15:03.657Z,0.10
2019-04-20T17:20:11.474Z,0.00
2019-04-20T17:25:17.060Z,0.00
2019-04-20T17:30:47.418Z,0.00
2019-04-20T17:36:03.071Z,0.00
2019-04-20T17:41:14.652Z,0.00
2019-04-20T17:46:17.398Z,0.10
2019-04-20T17:51:34.181Z,0.10
2019-04-20T17:56:20.430Z,0.00
2019-04-20T18:02:00.723Z,0.03
2019-04-20T18:07:04.455Z,0.03
2019-04-20T18:12:03.306Z,0.10
2019-04-20T18:18:02.704Z,0.10
2019-04-20T18:22:54.739Z,0.00
2019-04-20T18:28:13.260Z,0.00
2019-04-20T18:33:03.185Z,0.00
2019-04-20T18:38:14.859Z,0.00
2019-04-20T18:43:22.014Z,0.00
2019-04-20T18:48:45.198Z,0.00
2019-04-20T18:53:37.458Z,0.00
2019-04-20T18:58:38.224Z,0.00
2019-04-20T19:03:45.526Z,0.17
2019-04-20T19:08:52.023Z,0.07
2019-04-20T19:14:23.661Z,0.10
2019-04-20T19:19:47.748Z,0.10
2019-04-20T19:24:49.759Z,0.00
2019-04-20T19:30:07.127Z,0.00
2019-04-20T19:35:15.095Z,0.00
2019-04-20T19:40:24.711Z,0.00
2019-04-20T19:45:42.061Z,0.00
2019-04-20T19:50:53.336Z,0.10
2019-04-20T19:55:48.024Z,0.03
2019-04-20T20:00:51.375Z,0.10
2019-04-20T20:05:57.519Z,0.10
2019-04-20T20:11:29.593Z,0.10
2019-04-20T20:16:33.918Z,0.00
2019-04-20T20:21:48.290Z,0.10
2019-04-20T20:26:48.745Z,0.10
2019-04-20T20:32:02.223Z,0.20
2019-04-20T20:36:59.728Z,0.10
2019-04-20T20:42:15.386Z,0.10
2019-04-20T20:47:31.252Z,0.17
2019-04-20T20:52:32.409Z,0.10
2019-04-20T20:57:26.577Z,0.10
2019-04-20T21:02:43.491Z,0.20
2019-04-20T21:07:36.505Z,0.10
2019-04-20T21:12:47.249Z,0.10
2019-04-20T21:18:16.300Z,0.10
2019-04-20T21:23:13.891Z,0.20
2019-04-20T21:28:04.806Z,0.03
2019-04-20T21:33:11.076Z,0.13
2019-04-20T21:38:18.574Z,0.10
2019-04-20T21:43:29.973Z,0.10
2019-04-20T21:48:50.527Z,0.00
2019-04-20T21:53:39.005Z,0.00
2019-04-20T21:58:50.509Z,0.07
2019-04-20T22:03:52.370Z,0.00
2019-04-20T22:09:16.561Z,0.00
2019-04-20T22:14:25.810Z,0.00
2019-04-20T22:19:39.929Z,0.10
2019-04-20T22:24:51.841Z,0.00
2019-04-20T22:29:42.328Z,0.00
2019-04-20T22:34:56.840Z,0.10
2019-04-20T22:39:56.259Z,0.00
2019-04-20T22:45:05.248Z,0.10
2019-04-20T22:50:28.950Z,0.00
2019-04-20T22:55:36.324Z,0.00
2019-04-20T23:00:36.637Z,0.10
2019-04-20T23:05:28.986Z,0.07
2019-04-20T23:10:38.757Z,0.10
2019-04-20T23:15:43.322Z,0.00
2019-04-20T23:20:47.956Z,0.00
2019-04-20T23:25:53.387Z,0.10
2019-04-20T23:31:03.890Z,0.10
2019-04-20T23:36:06.797Z,0.00
2019-04-20T23:41:13.525Z,0.10
2019-04-20T23:46:36.926Z,0.20
2019-04-20T23:52:06.659Z,0.10
2019-04-20T23:56:49.984Z,0.10
